createdAt,value
2019-03-22T00:00:51.763Z,75.50
2019-03-22T00:03:21.761Z,77.17
2019-03-22T00:05:51.910Z,75.97
2019-03-22T00:08:22.051Z,76.10
2019-03-22T00:10:52.241Z,69.20
2019-03-22T00:13:22.311Z,67.40
2019-03-22T00:15:52.414Z,73.23
2019-03-22T00:18:22.311Z,72.30
2019-03-22T00:20:52.479Z,75.00
2019-03-22T00:23:22.440Z,74.20
2019-03-22T00:25:52.475Z,75.50
2019-03-22T00:28:22.564Z,70.23
2019-03-22T00:30:52.513Z,72.10
2019-03-22T00:33:22.663Z,68.43
2019-03-22T00:35:52.538Z,75.47
2019-03-22T00:38:22.665Z,71.60
2019-03-22T00:40:52.722Z,72.83
2019-03-22T00:43:22.911Z,77.17
2019-03-22T00:45:52.981Z,77.10
2019-03-22T00:48:24.953Z,78.37
2019-03-22T00:50:54.858Z,75.90
2019-03-22T00:53:25.029Z,71.53
2019-03-22T00:55:55.030Z,71.23
2019-03-22T00:58:25.012Z,71.80
2019-03-22T01:00:55.068Z,69.80
2019-03-22T01:03:25.229Z,70.87
2019-03-22T01:05:55.669Z,67.00
2019-03-22T01:08:25.751Z,67.80
2019-03-22T01:10:55.990Z,62.83
2019-03-22T01:13:26.872Z,65.80
2019-03-22T01:15:56.806Z,63.40
2019-03-22T01:18:27.304Z,65.97
2019-03-22T01:20:57.373Z,64.37
2019-03-22T01:23:27.312Z,76.90
2019-03-22T01:25:57.431Z,74.57
2019-03-22T01:28:27.528Z,73.20
2019-03-22T01:30:59.851Z,66.87
2019-03-22T01:33:30.109Z,75.10
2019-03-22T01:36:00.176Z,73.77
2019-03-22T01:38:30.291Z,72.00
2019-03-22T01:41:00.448Z,73.67
2019-03-22T01:43:30.642Z,70.50
2019-03-22T01:46:00.554Z,74.80
2019-03-22T01:48:33.084Z,74.50
2019-03-22T01:51:03.142Z,72.70
2019-03-22T01:53:33.328Z,67.57
2019-03-22T01:56:03.406Z,71.93
2019-03-22T01:58:35.945Z,67.63
2019-03-22T02:01:05.975Z,61.57
2019-03-22T02:03:36.084Z,62.87
2019-03-22T02:06:06.190Z,69.47
2019-03-22T02:08:36.225Z,83.50
2019-03-22T02:11:06.213Z,70.23
2019-03-22T02:13:36.433Z,73.50
2019-03-22T02:16:06.529Z,84.60
2019-03-22T02:18:36.605Z,62.07
2019-03-22T02:21:06.650Z,63.03
2019-03-22T02:23:36.674Z,63.77
2019-03-22T02:26:06.841Z,75.27
2019-03-22T02:28:36.988Z,71.27
2019-03-22T02:31:06.926Z,66.27
2019-03-22T02:33:36.941Z,84.63
2019-03-22T02:36:07.075Z,67.00
2019-03-22T02:38:37.073Z,75.37
2019-03-22T02:41:07.185Z,97.17
2019-03-22T02:43:37.226Z,71.30
2019-03-22T02:46:07.292Z,101.23
2019-03-22T02:48:37.293Z,91.50
2019-03-22T02:51:07.364Z,84.07
2019-03-22T02:53:37.358Z,66.90
2019-03-22T02:56:07.510Z,60.77
2019-03-22T02:58:37.585Z,73.40
2019-03-22T03:01:07.487Z,71.73
2019-03-22T03:03:37.492Z,73.77
2019-03-22T03:06:07.381Z,65.87
2019-03-22T03:08:37.350Z,68.70
2019-03-22T03:11:07.362Z,73.63
2019-03-22T03:13:37.471Z,62.10
2019-03-22T03:16:07.469Z,69.13
2019-03-22T03:18:37.387Z,78.07
2019-03-22T03:21:07.411Z,66.80
2019-03-22T03:23:37.383Z,62.83
2019-03-22T03:26:08.110Z,68.60
2019-03-22T03:28:38.044Z,73.70
2019-03-22T03:31:08.086Z,72.50
2019-03-22T03:33:38.142Z,69.97
2019-03-22T03:36:08.013Z,76.90
2019-03-22T03:38:37.961Z,69.07
2019-03-22T03:41:09.597Z,76.43
2019-03-22T03:43:40.097Z,68.43
2019-03-22T03:46:10.141Z,59.77
2019-03-22T03:48:40.080Z,76.00
2019-03-22T03:51:10.088Z,70.83
2019-03-22T03:53:40.082Z,79.90
2019-03-22T03:56:10.083Z,88.10
2019-03-22T03:58:51.524Z,81.23
2019-03-22T04:01:11.863Z,76.73
2019-03-22T04:03:41.840Z,90.23
2019-03-22T04:06:11.861Z,60.23
2019-03-22T04:08:41.790Z,78.03
2019-03-22T04:11:11.671Z,63.60
2019-03-22T04:13:41.823Z,66.53
2019-03-22T04:16:11.830Z,52.60
2019-03-22T04:18:41.887Z,67.07
2019-03-22T04:21:11.934Z,59.03
2019-03-22T04:23:41.965Z,49.37
2019-03-22T04:26:12.032Z,46.27
2019-03-22T04:28:42.124Z,44.30
2019-03-22T04:31:12.093Z,61.83
2019-03-22T04:33:42.115Z,72.07
2019-03-22T04:36:14.361Z,64.83
2019-03-22T04:38:44.359Z,63.50
2019-03-22T04:41:14.393Z,62.00
2019-03-22T04:43:44.328Z,49.57
2019-03-22T04:46:15.353Z,44.23
2019-03-22T04:48:45.720Z,57.27
2019-03-22T04:51:15.989Z,66.17
2019-03-22T04:53:51.319Z,54.17
2019-03-22T04:56:22.674Z,57.63
2019-03-22T04:58:53.819Z,45.77
2019-03-22T05:01:24.464Z,55.20
2019-03-22T05:03:54.953Z,45.07
2019-03-22T05:06:25.075Z,59.03
2019-03-22T05:08:56.772Z,60.97
2019-03-22T05:11:27.062Z,66.33
2019-03-22T05:13:58.595Z,64.57
2019-03-22T05:16:29.103Z,75.73
2019-03-22T05:19:00.699Z,70.27
2019-03-22T05:21:31.111Z,79.13
2019-03-22T05:24:03.382Z,62.67
2019-03-22T05:26:34.642Z,59.77
2019-03-22T05:29:05.684Z,56.37
2019-03-22T05:32:07.483Z,59.23
2019-03-22T05:34:37.569Z,74.37
2019-03-22T05:37:07.592Z,67.87
2019-03-22T05:39:37.653Z,54.40
2019-03-22T05:42:07.847Z,62.97
2019-03-22T05:44:37.939Z,68.83
2019-03-22T05:47:08.048Z,63.17
2019-03-22T05:49:38.045Z,59.53
2019-03-22T05:52:08.200Z,62.37
2019-03-22T05:54:38.171Z,52.20
2019-03-22T05:57:13.364Z,61.57
2019-03-22T05:59:42.918Z,61.33
2019-03-22T06:02:11.812Z,50.07
2019-03-22T06:04:41.957Z,50.67
2019-03-22T06:07:11.952Z,51.73
2019-03-22T06:09:42.055Z,49.97
2019-03-22T06:12:12.115Z,52.17
2019-03-22T06:14:42.192Z,49.40
2019-03-22T06:17:12.276Z,43.90
2019-03-22T06:19:42.250Z,45.13
2019-03-22T06:22:12.300Z,44.20
2019-03-22T06:24:42.315Z,42.50
2019-03-22T06:27:12.323Z,45.13
2019-03-22T06:29:53.317Z,46.03
2019-03-22T06:32:14.292Z,41.60
2019-03-22T06:34:44.242Z,46.30
2019-03-22T06:37:14.306Z,47.30
2019-03-22T06:39:44.268Z,44.53
2019-03-22T06:42:14.262Z,43.67
2019-03-22T06:44:44.409Z,46.50
2019-03-22T06:47:14.399Z,46.30
2019-03-22T06:49:44.359Z,51.40
2019-03-22T06:52:14.426Z,47.90
2019-03-22T06:54:44.346Z,48.00
2019-03-22T06:57:14.378Z,48.70
2019-03-22T06:59:44.383Z,45.27
2019-03-22T07:02:14.537Z,47.30
2019-03-22T07:04:44.608Z,45.77
2019-03-22T07:07:14.710Z,49.67
2019-03-22T07:09:44.812Z,48.47
2019-03-22T07:12:14.868Z,50.80
2019-03-22T07:14:44.987Z,49.40
2019-03-22T07:17:15.104Z,47.50
2019-03-22T07:19:45.197Z,49.30
2019-03-22T07:22:15.348Z,46.67
2019-03-22T07:24:45.338Z,48.43
2019-03-22T07:27:15.512Z,50.40
2019-03-22T07:29:45.602Z,53.70
2019-03-22T07:32:15.729Z,53.93
2019-03-22T07:34:45.788Z,59.30
2019-03-22T07:37:15.892Z,59.97
2019-03-22T07:39:46.042Z,60.77
2019-03-22T07:42:17.574Z,59.63
2019-03-22T07:44:47.844Z,64.80
2019-03-22T07:47:18.004Z,67.73
2019-03-22T07:49:48.169Z,63.83
2019-03-22T07:52:18.125Z,67.30
2019-03-22T07:54:48.185Z,70.00
2019-03-22T07:57:18.250Z,71.00
2019-03-22T07:59:48.283Z,67.97
2019-03-22T08:02:20.522Z,76.30
2019-03-22T08:04:50.619Z,71.97
2019-03-22T08:07:20.737Z,71.03
2019-03-22T08:09:51.374Z,75.77
2019-03-22T08:12:21.730Z,80.60
2019-03-22T08:14:51.686Z,78.40
2019-03-22T08:17:21.915Z,79.80
2019-03-22T08:19:52.012Z,85.87
2019-03-22T08:22:22.070Z,85.77
2019-03-22T08:24:52.904Z,85.67
2019-03-22T08:27:23.059Z,92.10
2019-03-22T08:29:53.115Z,92.13
2019-03-22T08:32:23.185Z,91.57
2019-03-22T08:34:53.347Z,90.47
2019-03-22T08:37:23.601Z,94.83
2019-03-22T08:39:55.940Z,92.67
2019-03-22T08:42:25.574Z,85.43
2019-03-22T08:44:55.692Z,92.30
2019-03-22T08:47:33.658Z,90.40
2019-03-22T08:49:57.469Z,89.70
2019-03-22T08:52:27.615Z,93.83
2019-03-22T08:54:57.574Z,85.60
2019-03-22T08:57:27.668Z,88.13
2019-03-22T08:59:57.704Z,88.43
2019-03-22T09:02:27.662Z,87.17
2019-03-22T09:04:57.984Z,86.67
2019-03-22T09:07:28.038Z,90.03
2019-03-22T09:09:57.981Z,82.50
2019-03-22T09:12:27.986Z,87.77
2019-03-22T09:14:59.239Z,78.17
2019-03-22T09:17:29.418Z,84.10
2019-03-22T09:19:59.513Z,87.27
2019-03-22T09:22:29.574Z,87.97
2019-03-22T09:24:59.652Z,79.63
2019-03-22T09:27:29.669Z,78.27
2019-03-22T09:29:59.668Z,74.33
2019-03-22T09:32:29.776Z,78.97
2019-03-22T09:34:59.939Z,75.63
2019-03-22T09:37:30.090Z,68.07
2019-03-22T09:40:00.481Z,65.50
2019-03-22T09:42:30.480Z,63.07
2019-03-22T09:45:00.516Z,62.97
2019-03-22T09:47:30.568Z,56.67
2019-03-22T09:50:00.650Z,52.20
2019-03-22T09:52:33.573Z,51.83
2019-03-22T09:55:12.475Z,52.37
2019-03-22T09:57:34.175Z,48.83
2019-03-22T10:00:04.610Z,48.90
2019-03-22T10:02:34.752Z,45.47
2019-03-22T10:05:07.960Z,43.70
2019-03-22T10:07:38.139Z,39.03
2019-03-22T10:10:08.211Z,35.60
2019-03-22T10:12:38.265Z,33.77
2019-03-22T10:15:08.408Z,39.17
2019-03-22T10:17:38.485Z,33.97
2019-03-22T10:20:08.729Z,37.77
2019-03-22T10:22:38.717Z,33.67
2019-03-22T10:25:08.854Z,34.57
2019-03-22T10:27:38.887Z,31.37
2019-03-22T10:30:09.210Z,32.73
2019-03-22T10:32:39.547Z,30.37
2019-03-22T10:35:10.224Z,34.93
2019-03-22T10:37:40.543Z,30.03
2019-03-22T10:40:10.567Z,27.37
2019-03-22T10:42:40.678Z,26.07
2019-03-22T10:45:11.615Z,27.20
2019-03-22T10:47:41.551Z,24.10
2019-03-22T10:50:11.629Z,23.93
2019-03-22T10:52:41.646Z,24.73
2019-03-22T10:55:28.586Z,23.83
2019-03-22T10:57:43.560Z,33.03
2019-03-22T11:00:16.754Z,166.17
2019-03-22T11:02:47.090Z,61.93
2019-03-22T11:05:17.434Z,80.67
2019-03-22T11:07:47.415Z,31.13
2019-03-22T11:10:17.425Z,19.10
2019-03-22T11:12:47.545Z,16.80
2019-03-22T11:15:18.055Z,17.90
2019-03-22T11:17:48.126Z,18.57
2019-03-22T11:20:18.205Z,15.97
2019-03-22T11:22:48.310Z,28.30
2019-03-22T11:25:18.405Z,30.20
2019-03-22T11:27:48.580Z,124.23
2019-03-22T11:30:22.042Z,296.17
2019-03-22T11:32:52.151Z,75.43
2019-03-22T11:35:22.289Z,25.23
2019-03-22T11:37:52.206Z,20.83
2019-03-22T11:40:22.139Z,13.83
2019-03-22T11:42:52.308Z,11.40
2019-03-22T11:45:24.497Z,13.23
2019-03-22T11:47:54.582Z,17.57
2019-03-22T11:50:24.684Z,11.97
2019-03-22T11:52:54.764Z,13.10
2019-03-22T11:55:24.779Z,10.83
2019-03-22T11:57:54.967Z,11.33
2019-03-22T12:00:25.149Z,10.00
2019-03-22T12:02:55.229Z,12.30
2019-03-22T12:05:25.412Z,16.00
2019-03-22T12:07:55.460Z,18.90
2019-03-22T12:10:25.650Z,13.50
2019-03-22T12:12:55.835Z,13.23
2019-03-22T12:15:26.371Z,12.80
2019-03-22T12:17:56.470Z,15.17
2019-03-22T12:20:26.648Z,14.47
2019-03-22T12:22:56.775Z,61.63
2019-03-22T12:25:27.024Z,13.00
2019-03-22T12:27:57.151Z,15.30
2019-03-22T12:30:27.117Z,11.87
2019-03-22T12:32:57.148Z,12.17
2019-03-22T12:35:27.314Z,12.93
2019-03-22T12:37:57.823Z,12.90
2019-03-22T12:40:27.980Z,12.50
2019-03-22T12:42:58.028Z,12.70
2019-03-22T12:45:28.449Z,11.30
2019-03-22T12:47:58.498Z,11.83
2019-03-22T12:50:28.964Z,11.20
2019-03-22T12:52:59.143Z,11.50
2019-03-22T12:55:29.288Z,12.77
2019-03-22T12:57:59.583Z,10.53
2019-03-22T13:00:29.747Z,10.83
2019-03-22T13:02:59.730Z,12.53
2019-03-22T13:05:29.861Z,12.53
2019-03-22T13:07:59.876Z,11.43
2019-03-22T13:10:30.247Z,13.53
2019-03-22T13:13:00.192Z,9.90
2019-03-22T13:15:30.272Z,11.60
2019-03-22T13:18:00.189Z,10.97
2019-03-22T13:20:30.332Z,25.57
2019-03-22T13:23:00.369Z,9.13
2019-03-22T13:25:30.546Z,10.10
2019-03-22T13:28:00.693Z,11.00
2019-03-22T13:30:34.995Z,9.60
2019-03-22T13:33:05.248Z,11.00
2019-03-22T13:35:35.306Z,11.03
2019-03-22T13:38:05.346Z,11.80
2019-03-22T13:40:35.435Z,11.60
2019-03-22T13:43:05.503Z,11.50
2019-03-22T13:45:35.600Z,10.00
2019-03-22T13:48:05.743Z,11.70
2019-03-22T13:50:36.652Z,10.10
2019-03-22T13:53:06.684Z,18.17
2019-03-22T13:55:36.848Z,12.60
2019-03-22T13:58:06.866Z,13.10
2019-03-22T14:00:36.963Z,12.67
2019-03-22T14:03:07.147Z,17.52
2019-03-22T14:05:37.134Z,11.50
2019-03-22T14:08:07.238Z,12.80
2019-03-22T14:10:37.376Z,12.00
2019-03-22T14:13:07.930Z,12.07
2019-03-22T14:15:37.981Z,12.03
2019-03-22T14:18:08.128Z,11.33
2019-03-22T14:20:38.108Z,12.47
2019-03-22T14:23:08.089Z,10.88
2019-03-22T14:25:38.048Z,10.25
2019-03-22T14:28:08.028Z,9.83
2019-03-22T14:30:38.021Z,11.80
2019-03-22T14:33:13.343Z,12.03
2019-03-22T14:35:39.913Z,10.20
2019-03-22T14:38:09.893Z,10.50
2019-03-22T14:40:39.894Z,10.98
2019-03-22T14:57:58.417Z,10.55
2019-03-22T15:00:28.494Z,12.82
2019-03-22T15:02:58.439Z,12.03
2019-03-22T15:05:28.246Z,12.82
2019-03-22T15:07:58.666Z,42.48
2019-03-22T15:10:28.484Z,12.58
2019-03-22T15:12:58.715Z,12.82
2019-03-22T15:16:05.946Z,10.35
2019-03-22T15:18:58.224Z,10.75
2019-03-22T15:21:52.941Z,10.90
2019-03-22T15:24:33.066Z,10.48
2019-03-22T15:27:20.504Z,10.88
2019-03-22T15:30:21.398Z,11.25
2019-03-22T15:33:04.576Z,10.98
2019-03-22T15:35:52.441Z,10.82
2019-03-22T15:38:50.689Z,11.55
2019-03-22T15:41:20.785Z,9.83
2019-03-22T15:43:50.660Z,10.55
2019-03-22T15:46:20.528Z,10.75
2019-03-22T15:48:50.628Z,10.53
2019-03-22T15:51:20.540Z,9.78
2019-03-22T15:53:50.554Z,11.43
2019-03-22T15:56:20.391Z,10.72
2019-03-22T15:58:50.321Z,9.80
2019-03-22T16:01:20.314Z,11.00
2019-03-22T16:03:50.180Z,9.15
2019-03-22T16:06:20.096Z,9.20
2019-03-22T16:08:49.937Z,9.90
2019-03-22T16:11:19.960Z,10.88
2019-03-22T16:13:49.974Z,12.85
2019-03-22T16:16:40.843Z,9.70
2019-03-22T16:19:10.807Z,10.57
2019-03-22T16:21:40.829Z,10.27
2019-03-22T16:24:11.887Z,10.87
2019-03-22T16:26:41.771Z,9.87
2019-03-22T16:29:12.911Z,11.00
2019-03-22T16:31:42.923Z,11.23
2019-03-22T16:34:12.860Z,10.60
2019-03-22T16:36:42.826Z,8.00
2019-03-22T16:39:12.826Z,8.83
2019-03-22T16:41:42.786Z,10.13
2019-03-22T16:44:12.692Z,9.50
2019-03-22T16:46:42.583Z,10.83
2019-03-22T16:49:14.511Z,9.37
2019-03-22T16:51:44.512Z,10.60
2019-03-22T16:54:14.483Z,8.87
2019-03-22T16:56:44.354Z,9.00
2019-03-22T16:59:14.714Z,8.60
2019-03-22T17:01:44.786Z,9.00
2019-03-22T17:04:14.870Z,8.30
2019-03-22T17:06:44.872Z,7.30
2019-03-22T17:09:15.023Z,7.63
2019-03-22T17:11:45.387Z,7.27
2019-03-22T17:14:15.360Z,6.97
2019-03-22T17:16:46.304Z,6.40
2019-03-22T17:19:17.388Z,6.00
2019-03-22T17:21:47.863Z,6.20
2019-03-22T17:24:17.900Z,6.20
2019-03-22T17:26:47.775Z,6.20
2019-03-22T17:29:17.967Z,7.47
2019-03-22T17:31:47.929Z,6.50
2019-03-22T17:34:18.010Z,6.83
2019-03-22T17:36:48.043Z,7.53
2019-03-22T17:39:18.166Z,8.70
2019-03-22T17:41:48.105Z,7.90
2019-03-22T17:44:18.184Z,7.17
2019-03-22T17:46:49.301Z,7.40
2019-03-22T17:49:19.283Z,5.80
2019-03-22T17:51:49.315Z,7.30
2019-03-22T17:54:19.181Z,7.20
2019-03-22T17:56:53.779Z,7.43
2019-03-22T17:59:29.926Z,7.30
2019-03-22T18:02:00.109Z,8.07
2019-03-22T18:04:30.123Z,6.90
2019-03-22T18:07:00.130Z,9.03
2019-03-22T18:09:30.474Z,8.60
2019-03-22T18:12:00.868Z,8.80
2019-03-22T18:14:30.941Z,8.27
2019-03-22T18:17:01.116Z,8.00
2019-03-22T18:19:31.125Z,6.43
2019-03-22T18:22:01.262Z,7.70
2019-03-22T18:24:31.346Z,8.30
2019-03-22T18:27:01.549Z,8.00
2019-03-22T18:29:31.657Z,9.20
2019-03-22T18:32:01.836Z,8.00
2019-03-22T18:34:34.526Z,9.00
2019-03-22T18:37:04.027Z,8.77
2019-03-22T18:39:34.206Z,8.33
2019-03-22T18:42:04.459Z,8.73
2019-03-22T18:44:34.700Z,7.23
2019-03-22T18:47:04.957Z,8.97
2019-03-22T18:49:35.337Z,8.10
2019-03-22T18:52:05.572Z,7.80
2019-03-22T18:54:35.927Z,7.70
2019-03-22T18:57:06.972Z,9.67
2019-03-22T18:59:37.249Z,10.77
2019-03-22T19:02:07.437Z,8.73
2019-03-22T19:04:43.886Z,9.43
2019-03-22T19:07:10.522Z,9.93
2019-03-22T19:09:40.941Z,7.60
2019-03-22T19:12:11.172Z,9.47
2019-03-22T19:14:41.377Z,9.20
2019-03-22T19:17:11.461Z,10.00
2019-03-22T19:19:41.760Z,11.00
2019-03-22T19:22:11.980Z,10.50
2019-03-22T19:24:42.540Z,8.70
2019-03-22T19:27:17.227Z,9.30
2019-03-22T19:29:48.506Z,9.97
2019-03-22T19:32:18.619Z,10.10
2019-03-22T19:34:54.309Z,11.37
2019-03-22T19:37:21.518Z,11.83
2019-03-22T19:39:51.666Z,10.27
2019-03-22T19:42:21.845Z,12.00
2019-03-22T19:44:52.097Z,11.43
2019-03-22T19:47:22.292Z,11.43
2019-03-22T19:49:52.601Z,13.07
2019-03-22T19:52:23.415Z,10.30
2019-03-22T19:54:53.735Z,11.23
2019-03-22T19:57:23.950Z,11.10
2019-03-22T19:59:54.191Z,12.37
2019-03-22T20:02:24.425Z,12.70
2019-03-22T20:05:04.227Z,13.63
2019-03-22T20:07:27.203Z,12.30
2019-03-22T20:09:57.582Z,11.67
2019-03-22T20:12:27.823Z,11.30
2019-03-22T20:14:57.977Z,12.20
2019-03-22T20:17:28.207Z,12.73
2019-03-22T20:19:58.521Z,12.40
2019-03-22T20:22:28.750Z,12.17
2019-03-22T20:24:58.897Z,14.40
2019-03-22T20:27:29.178Z,14.83
2019-03-22T20:29:59.277Z,11.87
2019-03-22T20:32:29.506Z,14.20
2019-03-22T20:34:59.722Z,13.80
2019-03-22T20:37:31.211Z,12.60
2019-03-22T20:40:01.443Z,14.50
2019-03-22T20:42:31.678Z,15.03
2019-03-22T20:45:01.758Z,13.53
2019-03-22T20:47:31.966Z,14.07
2019-03-22T20:50:02.288Z,13.80
2019-03-22T20:52:32.561Z,13.50
2019-03-22T20:55:02.823Z,12.70
2019-03-22T20:57:33.059Z,14.17
2019-03-22T21:00:03.195Z,14.70
2019-03-22T21:02:33.440Z,13.43
2019-03-22T21:05:03.600Z,14.40
2019-03-22T21:07:33.829Z,16.20
2019-03-22T21:10:04.049Z,17.40
2019-03-22T21:12:34.139Z,14.47
2019-03-22T21:15:04.719Z,15.27
2019-03-22T21:17:34.867Z,12.23
2019-03-22T21:20:05.575Z,15.13
2019-03-22T21:22:35.686Z,20.70
2019-03-22T21:25:06.447Z,19.10
2019-03-22T21:27:36.614Z,17.37
2019-03-22T21:30:09.733Z,16.53
2019-03-22T21:32:45.326Z,19.53
2019-03-22T21:35:21.840Z,17.90
2019-03-22T21:37:44.987Z,19.10
2019-03-22T21:40:15.107Z,17.30
2019-03-22T21:42:45.400Z,18.70
2019-03-22T21:45:15.732Z,17.97
2019-03-22T21:47:45.915Z,22.17
2019-03-22T21:50:16.029Z,17.63
2019-03-22T21:52:46.148Z,17.70
2019-03-22T21:55:16.108Z,19.87
2019-03-22T21:57:45.907Z,16.10
2019-03-22T22:00:15.947Z,19.13
2019-03-22T22:02:45.907Z,16.47
2019-03-22T22:05:15.865Z,16.07
2019-03-22T22:07:45.979Z,17.00
2019-03-22T22:10:15.964Z,19.37
2019-03-22T22:12:45.789Z,17.73
2019-03-22T22:15:15.794Z,20.00
2019-03-22T22:17:45.701Z,18.97
2019-03-22T22:20:15.688Z,19.23
2019-03-22T22:22:45.576Z,21.83
2019-03-22T22:25:15.422Z,20.77
2019-03-22T22:27:45.319Z,18.63
2019-03-22T22:30:15.255Z,20.60
2019-03-22T22:32:45.067Z,23.47
2019-03-22T22:35:15.067Z,23.60
2019-03-22T22:37:44.880Z,21.77
2019-03-22T22:40:14.953Z,22.60
2019-03-22T22:42:44.981Z,21.43
2019-03-22T22:45:14.938Z,24.60
2019-03-22T22:47:44.844Z,23.83
2019-03-22T22:50:15.279Z,22.37
2019-03-22T22:52:45.176Z,21.43
2019-03-22T22:55:15.128Z,22.27
2019-03-22T22:57:45.076Z,21.23
2019-03-22T23:00:16.679Z,22.43
2019-03-22T23:02:46.682Z,25.50
2019-03-22T23:05:16.615Z,25.97
2019-03-22T23:07:46.409Z,23.63
2019-03-22T23:10:16.438Z,23.97
2019-03-22T23:12:46.328Z,22.87
2019-03-22T23:15:16.353Z,24.17
2019-03-22T23:17:46.200Z,23.10
2019-03-22T23:20:16.160Z,26.27
2019-03-22T23:22:46.098Z,23.07
2019-03-22T23:25:16.620Z,23.47
2019-03-22T23:27:46.531Z,27.40
2019-03-22T23:30:16.468Z,23.23
2019-03-22T23:32:46.278Z,27.40
2019-03-22T23:35:16.192Z,26.13
2019-03-22T23:37:46.059Z,26.13
2019-03-22T23:40:16.030Z,32.30
2019-03-22T23:42:45.850Z,28.13
2019-03-22T23:45:15.658Z,27.57
2019-03-22T23:47:45.534Z,24.27
2019-03-22T23:50:15.350Z,28.90
2019-03-22T23:52:45.182Z,26.07
2019-03-22T23:55:15.110Z,26.20
2019-03-22T23:57:44.896Z,32.40
